createdAt,value
2018-02-21T00:01:07.533Z,50.23
2018-02-21T00:03:36.740Z,50.54
2018-02-21T00:06:06.456Z,50.35
2018-02-21T00:08:35.686Z,50.45
2018-02-21T00:11:05.923Z,50.34
2018-02-21T00:13:37.660Z,50.19
2018-02-21T00:16:06.916Z,50.49
2018-02-21T00:19:38.673Z,50.79
2018-02-21T00:22:08.556Z,50.92
2018-02-21T00:24:37.842Z,50.81
2018-02-21T00:27:07.468Z,50.78
2018-02-21T00:29:37.086Z,51.18
2018-02-21T00:32:06.349Z,51.32
2018-02-21T00:34:35.738Z,51.38
2018-02-21T00:37:05.475Z,51.42
2018-02-21T00:39:34.735Z,51.53
2018-02-21T00:42:06.331Z,51.50
2018-02-21T00:44:36.298Z,51.50
2018-02-21T00:47:05.528Z,51.69
2018-02-21T00:49:35.947Z,52.00
2018-02-21T00:52:06.400Z,52.01
2018-02-21T00:54:35.663Z,52.04
2018-02-21T00:57:06.140Z,52.26
2018-02-21T00:59:36.963Z,52.20
2018-02-21T01:02:06.233Z,52.33
2018-02-21T01:04:35.511Z,52.76
2018-02-21T01:07:06.260Z,52.99
2018-02-21T01:09:35.552Z,53.08
2018-02-21T01:12:05.732Z,53.45
2018-02-21T01:14:36.596Z,53.47
2018-02-21T01:17:06.284Z,54.09
2018-02-21T01:19:35.626Z,54.18
2018-02-21T01:22:06.588Z,54.37
2018-02-21T01:24:35.889Z,54.81
2018-02-21T01:27:05.152Z,54.67
2018-02-21T01:29:35.765Z,54.71
2018-02-21T01:32:05.668Z,54.75
2018-02-21T01:34:35.014Z,54.93
2018-02-21T01:37:05.627Z,54.59
2018-02-21T01:39:49.271Z,54.60
2018-02-21T01:42:18.958Z,54.59
2018-02-21T01:44:48.211Z,54.48
2018-02-21T01:47:17.461Z,54.73
2018-02-21T01:49:47.028Z,55.29
2018-02-21T01:52:16.324Z,55.53
2018-02-21T01:54:45.587Z,55.63
2018-02-21T01:57:15.376Z,55.51
2018-02-21T01:59:44.634Z,55.80
2018-02-21T02:02:14.069Z,55.50
2018-02-21T02:04:43.915Z,55.70
2018-02-21T02:07:13.155Z,56.11
2018-02-21T02:09:42.420Z,56.33
2018-02-21T02:12:12.089Z,56.71
2018-02-21T02:14:41.331Z,56.79
2018-02-21T02:17:10.550Z,57.50
2018-02-21T02:19:40.169Z,57.58
2018-02-21T02:22:09.427Z,57.90
2018-02-21T02:24:38.712Z,57.83
2018-02-21T02:27:08.275Z,58.28
2018-02-21T02:29:37.538Z,57.86
2018-02-21T02:32:06.781Z,58.46
2018-02-21T02:34:36.526Z,58.50
2018-02-21T02:37:05.762Z,58.46
2018-02-21T02:40:03.143Z,58.29
2018-02-21T02:42:32.783Z,58.17
2018-02-21T02:45:02.466Z,57.96
2018-02-21T02:47:32.087Z,57.93
2018-02-21T02:50:01.503Z,57.64
2018-02-21T02:52:30.781Z,57.62
2018-02-21T02:55:00.539Z,56.94
2018-02-21T02:57:29.842Z,56.87
2018-02-21T02:59:59.055Z,57.15
2018-02-21T03:02:28.858Z,57.16
2018-02-21T03:04:58.275Z,57.66
2018-02-21T03:07:27.551Z,57.56
2018-02-21T03:09:57.335Z,57.40
2018-02-21T03:12:26.687Z,57.70
2018-02-21T03:14:55.939Z,57.87
2018-02-21T03:17:25.538Z,57.86
2018-02-21T03:19:54.788Z,58.20
2018-02-21T03:22:24.220Z,57.92
2018-02-21T03:24:53.998Z,58.01
2018-02-21T03:27:24.513Z,58.11
2018-02-21T03:29:53.779Z,57.85
2018-02-21T03:32:23.336Z,57.85
2018-02-21T03:34:52.570Z,58.10
2018-02-21T03:37:21.905Z,58.58
2018-02-21T03:39:51.579Z,58.39
2018-02-21T03:42:21.037Z,58.44
2018-02-21T03:44:50.350Z,58.08
2018-02-21T03:47:20.127Z,58.14
2018-02-21T03:49:49.416Z,58.42
2018-02-21T03:52:18.708Z,58.33
2018-02-21T03:54:48.065Z,58.78
2018-02-21T03:57:17.354Z,58.82
2018-02-21T03:59:49.058Z,58.97
2018-02-21T04:02:18.320Z,59.44
2018-02-21T04:04:47.578Z,59.30
2018-02-21T04:07:17.171Z,59.48
2018-02-21T04:09:46.447Z,59.23
2018-02-21T04:12:15.727Z,59.82
2018-02-21T04:16:14.661Z,59.81
2018-02-21T04:18:43.912Z,60.47
2018-02-21T04:21:13.568Z,60.42
2018-02-21T04:23:42.776Z,60.08
2018-02-21T04:26:12.008Z,60.44
2018-02-21T04:28:41.724Z,60.44
2018-02-21T04:31:10.962Z,60.38
2018-02-21T04:33:40.302Z,60.72
2018-02-21T04:36:09.947Z,60.68
2018-02-21T04:38:39.195Z,60.99
2018-02-21T04:41:08.518Z,60.78
2018-02-21T04:43:39.257Z,60.94
2018-02-21T04:46:08.555Z,60.95
2018-02-21T04:48:37.801Z,61.10
2018-02-21T04:51:07.478Z,60.92
2018-02-21T04:53:36.827Z,60.77
2018-02-21T04:56:07.148Z,60.67
2018-02-21T04:58:38.297Z,60.81
2018-02-21T05:01:07.734Z,61.04
2018-02-21T05:03:37.009Z,60.95
2018-02-21T05:06:07.578Z,60.85
2018-02-21T05:08:36.837Z,60.58
2018-02-21T05:11:06.095Z,60.60
2018-02-21T05:13:39.742Z,60.82
2018-02-21T05:16:09.134Z,60.86
2018-02-21T05:18:38.379Z,60.84
2018-02-21T05:21:09.102Z,61.00
2018-02-21T05:23:38.363Z,62.07
2018-02-21T05:26:07.628Z,62.14
2018-02-21T05:28:37.310Z,62.02
2018-02-21T05:31:06.596Z,61.91
2018-02-21T05:33:35.833Z,61.64
2018-02-21T05:36:06.561Z,61.69
2018-02-21T05:38:35.845Z,61.87
2018-02-21T05:41:05.278Z,61.89
2018-02-21T05:43:34.961Z,61.92
2018-02-21T05:46:05.376Z,62.57
2018-02-21T05:48:34.658Z,62.18
2018-02-21T05:51:04.488Z,61.82
2018-02-21T05:53:34.736Z,61.85
2018-02-21T05:56:04.727Z,62.11
2018-02-21T05:58:34.578Z,62.11
2018-02-21T06:01:04.930Z,62.24
2018-02-21T06:03:34.249Z,62.41
2018-02-21T06:06:04.639Z,62.41
2018-02-21T06:08:33.866Z,62.48
2018-02-21T06:11:03.392Z,62.75
2018-02-21T06:13:33.083Z,62.79
2018-02-21T06:16:03.050Z,62.91
2018-02-21T06:18:32.393Z,63.08
2018-02-21T06:21:02.431Z,63.52
2018-02-21T06:23:31.679Z,63.46
2018-02-21T06:26:00.911Z,63.52
2018-02-21T06:28:30.815Z,63.95
2018-02-21T06:31:00.112Z,64.14
2018-02-21T06:33:29.380Z,64.40
2018-02-21T06:38:27.003Z,64.51
2018-02-21T06:40:56.516Z,64.30
2018-02-21T06:43:26.642Z,64.60
2018-02-21T06:45:55.909Z,64.46
2018-02-21T06:48:25.237Z,65.04
2018-02-21T06:50:54.842Z,65.07
2018-02-21T06:53:24.116Z,65.54
2018-02-21T06:55:53.496Z,64.96
2018-02-21T06:58:23.237Z,65.06
2018-02-21T07:00:52.562Z,65.23
2018-02-21T07:03:21.959Z,65.21
2018-02-21T07:05:52.500Z,65.27
2018-02-21T07:08:22.006Z,65.13
2018-02-21T07:10:51.594Z,65.48
2018-02-21T07:13:21.997Z,65.20
2018-02-21T07:18:19.357Z,65.01
2018-02-21T07:20:49.189Z,64.92
2018-02-21T07:23:18.583Z,64.96
2018-02-21T07:25:49.627Z,64.63
2018-02-21T07:28:19.810Z,64.48
2018-02-21T07:30:49.063Z,64.31
2018-02-21T07:33:18.376Z,64.39
2018-02-21T07:35:48.851Z,64.09
2018-02-21T07:38:18.097Z,63.88
2018-02-21T07:40:47.358Z,63.49
2018-02-21T07:43:17.004Z,63.51
2018-02-21T07:45:46.343Z,63.08
2018-02-21T07:48:15.675Z,62.84
2018-02-21T07:50:45.400Z,62.11
2018-02-21T07:53:23.065Z,60.17
2018-02-21T07:55:58.483Z,57.17
2018-02-21T07:58:30.704Z,54.70
2018-02-21T08:01:00.600Z,53.78
2018-02-21T08:03:29.864Z,52.17
2018-02-21T08:05:59.246Z,51.10
2018-02-21T08:08:28.918Z,50.51
2018-02-21T08:10:58.169Z,49.52
2018-02-21T08:13:27.447Z,50.75
2018-02-21T08:15:57.130Z,49.81
2018-02-21T08:18:26.882Z,49.55
2018-02-21T08:20:56.168Z,50.13
2018-02-21T08:23:25.986Z,49.69
2018-02-21T08:25:55.308Z,48.83
2018-02-21T08:28:24.595Z,48.23
2018-02-21T08:30:54.284Z,48.65
2018-02-21T08:33:23.563Z,49.02
2018-02-21T08:35:52.810Z,49.42
2018-02-21T08:38:22.620Z,48.85
2018-02-21T08:40:52.396Z,49.34
2018-02-21T08:43:22.671Z,49.46
2018-02-21T08:45:52.378Z,49.10
2018-02-21T08:48:21.724Z,48.76
2018-02-21T08:50:51.007Z,48.49
2018-02-21T08:53:20.731Z,48.56
2018-02-21T08:55:50.019Z,49.29
2018-02-21T08:58:19.420Z,48.87
2018-02-21T09:00:49.071Z,48.72
2018-02-21T09:03:18.354Z,48.21
2018-02-21T09:05:47.651Z,47.22
2018-02-21T09:08:17.421Z,46.72
2018-02-21T09:10:46.702Z,46.27
2018-02-21T09:13:16.060Z,46.40
2018-02-21T09:15:45.607Z,46.85
2018-02-21T09:18:14.870Z,46.83
2018-02-21T09:20:44.209Z,45.75
2018-02-21T09:23:13.895Z,44.47
2018-02-21T09:25:44.185Z,43.44
2018-02-21T09:28:13.533Z,43.46
2018-02-21T09:30:43.755Z,43.98
2018-02-21T09:33:13.182Z,43.57
2018-02-21T09:35:43.092Z,43.16
2018-02-21T09:38:12.514Z,43.36
2018-02-21T09:40:41.998Z,43.36
2018-02-21T09:43:11.938Z,42.42
2018-02-21T09:45:41.216Z,42.04
2018-02-21T09:48:10.514Z,41.85
2018-02-21T09:50:40.071Z,41.19
2018-02-21T09:53:09.314Z,40.93
2018-02-21T09:55:38.595Z,41.18
2018-02-21T09:58:08.533Z,42.05
2018-02-21T10:00:38.344Z,41.63
2018-02-21T10:03:08.406Z,41.51
2018-02-21T10:05:37.997Z,41.15
2018-02-21T10:08:07.324Z,40.81
2018-02-21T10:10:42.520Z,40.27
2018-02-21T10:13:18.227Z,40.05
2018-02-21T10:15:48.076Z,38.47
2018-02-21T10:18:17.943Z,38.47
2018-02-21T10:20:47.348Z,39.30
2018-02-21T10:23:16.677Z,38.46
2018-02-21T10:25:46.342Z,38.20
2018-02-21T10:28:15.978Z,37.84
2018-02-21T10:30:45.353Z,37.51
2018-02-21T10:33:16.141Z,37.21
2018-02-21T10:35:47.012Z,36.21
2018-02-21T10:38:16.389Z,35.47
2018-02-21T10:40:46.112Z,35.37
2018-02-21T10:43:15.503Z,35.44
2018-02-21T10:45:44.900Z,35.12
2018-02-21T10:48:14.542Z,35.48
2018-02-21T10:50:43.807Z,35.28
2018-02-21T10:55:42.872Z,34.39
2018-02-21T10:58:13.168Z,33.73
2018-02-21T11:00:47.082Z,33.74
2018-02-21T11:03:17.315Z,33.44
2018-02-21T11:05:47.635Z,33.47
2018-02-21T11:08:17.227Z,33.21
2018-02-21T11:10:48.588Z,33.47
2018-02-21T11:13:18.335Z,32.95
2018-02-21T11:15:47.645Z,32.72
2018-02-21T11:18:17.556Z,32.48
2018-02-21T11:20:47.335Z,31.89
2018-02-21T11:23:16.608Z,32.14
2018-02-21T11:25:45.868Z,32.13
2018-02-21T11:28:16.299Z,32.05
2018-02-21T11:31:17.674Z,31.96
2018-02-21T11:33:48.118Z,31.98
2018-02-21T11:36:17.682Z,31.37
2018-02-21T11:38:47.432Z,31.14
2018-02-21T11:41:17.114Z,30.97
2018-02-21T11:43:46.403Z,31.05
2018-02-21T11:46:15.662Z,31.19
2018-02-21T11:48:45.247Z,31.12
2018-02-21T11:51:14.551Z,30.84
2018-02-21T11:53:43.815Z,30.48
2018-02-21T11:56:13.642Z,30.37
2018-02-21T11:58:42.963Z,30.16
2018-02-21T12:01:12.219Z,29.34
2018-02-21T12:03:41.472Z,29.29
2018-02-21T12:06:10.760Z,30.10
2018-02-21T12:08:40.034Z,30.98
2018-02-21T12:11:10.735Z,30.87
2018-02-21T12:13:40.718Z,30.66
2018-02-21T12:16:09.991Z,30.73
2018-02-21T12:18:39.251Z,30.87
2018-02-21T12:21:08.596Z,30.13
2018-02-21T12:23:38.204Z,29.96
2018-02-21T12:26:07.438Z,29.78
2018-02-21T12:28:36.724Z,28.89
2018-02-21T12:31:06.345Z,28.46
2018-02-21T12:33:35.587Z,28.22
2018-02-21T12:36:06.935Z,28.02
2018-02-21T12:38:37.508Z,28.28
2018-02-21T12:41:11.485Z,28.20
2018-02-21T12:43:40.850Z,27.75
2018-02-21T12:46:10.091Z,27.65
2018-02-21T12:48:39.342Z,26.91
2018-02-21T12:51:08.934Z,26.80
2018-02-21T12:53:38.860Z,27.02
2018-02-21T12:56:08.131Z,26.72
2018-02-21T12:58:37.767Z,26.83
2018-02-21T13:01:07.058Z,26.59
2018-02-21T13:03:36.256Z,26.06
2018-02-21T13:06:06.335Z,26.67
2018-02-21T13:08:36.727Z,26.84
2018-02-21T13:11:06.068Z,26.24
2018-02-21T13:13:36.820Z,26.42
2018-02-21T13:16:06.117Z,25.80
2018-02-21T13:18:35.345Z,25.80
2018-02-21T13:21:05.126Z,26.56
2018-02-21T13:23:34.640Z,27.23
2018-02-21T13:26:06.367Z,26.45
2018-02-21T13:28:35.678Z,25.90
2018-02-21T13:31:05.055Z,26.41
2018-02-21T13:33:34.709Z,26.76
2018-02-21T13:36:04.802Z,28.02
2018-02-21T13:38:34.171Z,28.28
2018-02-21T13:41:04.280Z,28.45
2018-02-21T13:43:34.073Z,29.38
2018-02-21T13:46:04.454Z,29.37
2018-02-21T13:48:33.984Z,29.57
2018-02-21T13:51:04.459Z,30.10
2018-02-21T13:53:33.726Z,29.95
2018-02-21T13:56:04.512Z,30.64
2018-02-21T13:58:33.787Z,31.14
2018-02-21T14:01:03.292Z,31.20
2018-02-21T14:03:32.894Z,31.19
2018-02-21T14:06:02.858Z,31.69
2018-02-21T14:08:34.022Z,32.65
2018-02-21T14:11:03.840Z,33.03
2018-02-21T14:13:33.147Z,32.28
2018-02-21T14:16:03.687Z,32.29
2018-02-21T14:18:32.964Z,31.70
2018-02-21T14:21:02.444Z,31.29
2018-02-21T14:23:33.184Z,31.47
2018-02-21T14:26:04.486Z,31.35
2018-02-21T14:28:33.764Z,31.35
2018-02-21T14:31:03.642Z,31.40
2018-02-21T14:33:32.973Z,31.56
2018-02-21T14:36:04.167Z,31.30
2018-02-21T14:38:33.481Z,31.82
2018-02-21T14:41:03.118Z,31.60
2018-02-21T14:43:33.424Z,31.67
2018-02-21T14:46:03.875Z,31.64
2018-02-21T14:48:34.472Z,31.93
2018-02-21T14:51:04.479Z,31.99
2018-02-21T14:53:33.746Z,31.97
2018-02-21T14:56:03.820Z,32.31
2018-02-21T14:58:33.403Z,32.14
2018-02-21T15:01:02.895Z,32.44
2018-02-21T15:03:32.159Z,32.66
2018-02-21T15:06:03.807Z,32.17
2018-02-21T15:08:33.086Z,32.14
2018-02-21T15:11:02.621Z,32.45
2018-02-21T15:13:33.439Z,32.76
2018-02-21T15:16:03.766Z,33.05
2018-02-21T15:18:33.366Z,32.83
2018-02-21T15:21:03.205Z,32.88
2018-02-21T15:23:32.513Z,32.98
2018-02-21T15:26:04.039Z,33.12
2018-02-21T15:31:33.423Z,33.71
2018-02-21T15:34:03.664Z,34.13
2018-02-21T15:36:32.982Z,33.41
2018-02-21T15:39:02.604Z,33.62
2018-02-21T15:41:31.843Z,33.69
2018-02-21T15:44:01.991Z,33.78
2018-02-21T15:46:32.524Z,33.83
2018-02-21T15:49:02.006Z,33.69
2018-02-21T15:51:32.321Z,32.67
2018-02-21T15:54:03.939Z,32.87
2018-02-21T15:56:34.377Z,32.55
2018-02-21T15:59:04.839Z,31.83
2018-02-21T16:01:34.413Z,31.37
2018-02-21T16:04:04.506Z,31.30
2018-02-21T16:06:33.756Z,31.76
2018-02-21T16:09:03.761Z,31.89
2018-02-21T16:11:33.050Z,32.50
2018-02-21T16:14:04.148Z,32.62
2018-02-21T16:16:35.016Z,32.36
2018-02-21T16:19:04.423Z,33.52
2018-02-21T16:21:34.679Z,33.55
2018-02-21T16:24:05.116Z,34.11
2018-02-21T16:26:34.580Z,34.78
2018-02-21T16:29:03.989Z,35.26
2018-02-21T16:31:33.295Z,35.19
2018-02-21T16:34:03.516Z,35.83
2018-02-21T16:36:33.225Z,36.28
2018-02-21T16:39:02.705Z,36.26
2018-02-21T16:41:32.022Z,36.65
2018-02-21T16:44:03.789Z,37.02
2018-02-21T16:46:33.139Z,37.75
2018-02-21T16:49:02.625Z,37.64
2018-02-21T16:51:33.558Z,37.92
2018-02-21T16:54:07.081Z,38.26
2018-02-21T16:56:36.830Z,38.41
2018-02-21T17:02:09.243Z,39.39
2018-02-21T17:04:39.709Z,41.07
2018-02-21T17:07:09.282Z,41.29
2018-02-21T17:09:38.882Z,41.17
2018-02-21T17:12:09.103Z,41.00
2018-02-21T17:14:38.779Z,40.98
2018-02-21T17:17:08.107Z,41.04
2018-02-21T17:19:37.621Z,41.10
2018-02-21T17:22:07.280Z,41.24
2018-02-21T17:24:36.556Z,40.91
2018-02-21T17:27:05.816Z,40.88
2018-02-21T17:29:35.473Z,40.88
2018-02-21T17:32:05.383Z,41.10
2018-02-21T17:34:34.662Z,41.19
2018-02-21T17:37:04.550Z,41.09
2018-02-21T17:39:33.810Z,41.45
2018-02-21T17:42:05.018Z,41.64
2018-02-21T17:44:34.567Z,41.51
2018-02-21T17:47:04.191Z,41.37
2018-02-21T17:49:33.429Z,41.47
2018-02-21T17:52:05.129Z,41.67
2018-02-21T17:54:34.407Z,41.81
2018-02-21T17:57:04.031Z,42.13
2018-02-21T17:59:33.629Z,42.64
2018-02-21T18:02:06.680Z,42.79
2018-02-21T18:04:36.381Z,42.79
2018-02-21T18:07:06.149Z,42.65
2018-02-21T18:09:35.480Z,43.23
2018-02-21T18:12:05.689Z,42.64
2018-02-21T18:14:38.786Z,43.02
2018-02-21T18:17:08.362Z,43.02
2018-02-21T18:19:37.839Z,42.77
2018-02-21T18:22:07.421Z,42.59
2018-02-21T18:27:18.585Z,43.36
2018-02-21T18:29:48.483Z,43.27
2018-02-21T18:32:19.491Z,43.67
2018-02-21T18:34:49.422Z,43.81
2018-02-21T18:37:18.711Z,43.77
2018-02-21T18:39:48.018Z,44.06
2018-02-21T18:42:17.026Z,43.87
2018-02-21T18:44:46.943Z,44.26
2018-02-21T18:47:16.198Z,44.20
2018-02-21T18:49:45.909Z,44.45
2018-02-21T18:52:16.808Z,44.89
2018-02-21T18:54:46.076Z,45.09
2018-02-21T18:57:15.598Z,44.92
2018-02-21T18:59:44.919Z,44.91
2018-02-21T19:02:14.182Z,44.93
2018-02-21T19:04:44.296Z,45.56
2018-02-21T19:07:13.610Z,45.00
2018-02-21T19:09:42.355Z,45.38
2018-02-21T19:12:11.573Z,45.59
2018-02-21T19:14:41.267Z,45.69
2018-02-21T19:17:10.353Z,45.37
2018-02-21T19:19:40.093Z,45.89
2018-02-21T19:22:09.396Z,46.26
2018-02-21T19:24:38.717Z,46.35
2018-02-21T19:27:08.390Z,46.23
2018-02-21T19:29:37.853Z,46.59
2018-02-21T19:32:07.162Z,46.74
2018-02-21T19:34:37.001Z,46.81
2018-02-21T19:37:06.255Z,46.98
2018-02-21T19:39:35.490Z,47.05
2018-02-21T19:42:05.610Z,46.93
2018-02-21T19:44:34.835Z,47.13
2018-02-21T19:47:04.266Z,47.08
2018-02-21T19:49:33.927Z,47.62
2018-02-21T19:52:06.815Z,47.44
2018-02-21T19:54:36.103Z,47.51
2018-02-21T19:57:05.712Z,47.37
2018-02-21T19:59:34.993Z,47.86
2018-02-21T20:02:05.503Z,48.14
2018-02-21T20:04:35.306Z,48.23
2018-02-21T20:07:04.773Z,48.54
2018-02-21T20:09:34.062Z,48.32
2018-02-21T20:12:04.054Z,48.44
2018-02-21T20:14:33.390Z,48.29
2018-02-21T20:17:05.083Z,48.39
2018-02-21T20:19:34.385Z,48.51
2018-02-21T20:22:04.845Z,48.67
2018-02-21T20:24:34.505Z,48.16
2018-02-21T20:27:03.988Z,47.47
2018-02-21T20:29:33.221Z,47.58
2018-02-21T20:32:04.027Z,47.25
2018-02-21T20:34:33.279Z,47.39
2018-02-21T20:37:03.684Z,47.16
2018-02-21T20:39:33.463Z,47.15
2018-02-21T20:42:03.683Z,47.23
2018-02-21T20:44:32.915Z,47.33
2018-02-21T20:47:02.517Z,47.60
2018-02-21T20:49:31.789Z,47.33
2018-02-21T20:52:01.377Z,47.52
2018-02-21T20:54:30.957Z,47.45
2018-02-21T20:57:00.227Z,47.08
2018-02-21T20:59:59.683Z,47.25
2018-02-21T21:02:29.924Z,47.51
2018-02-21T21:04:59.221Z,47.51
2018-02-21T21:07:28.483Z,47.60
2018-02-21T21:09:58.023Z,47.68
2018-02-21T21:12:27.274Z,47.88
2018-02-21T21:14:56.488Z,47.66
2018-02-21T21:17:26.141Z,47.34
2018-02-21T21:19:55.376Z,47.95
2018-02-21T21:22:24.613Z,47.79
2018-02-21T21:24:53.906Z,48.28
2018-02-21T21:27:23.146Z,48.25
2018-02-21T21:29:52.570Z,48.55
2018-02-21T21:32:22.809Z,48.44
2018-02-21T21:34:52.512Z,48.54
2018-02-21T21:37:22.348Z,48.34
2018-02-21T21:39:52.243Z,48.45
2018-02-21T21:42:21.945Z,48.36
2018-02-21T21:44:52.326Z,49.03
2018-02-21T21:47:22.175Z,48.43
2018-02-21T21:49:51.727Z,48.56
2018-02-21T21:52:21.735Z,48.57
2018-02-21T21:54:52.135Z,48.90
2018-02-21T21:57:22.758Z,48.89
2018-02-21T22:05:07.034Z,49.44
2018-02-21T22:07:37.476Z,49.23
2018-02-21T22:10:07.907Z,49.36
2018-02-21T22:12:38.152Z,49.43
2018-02-21T22:15:08.156Z,49.49
2018-02-21T22:17:38.192Z,49.71
2018-02-21T22:20:07.540Z,49.82
2018-02-21T22:22:37.631Z,49.80
2018-02-21T22:25:07.478Z,49.87
2018-02-21T22:27:37.189Z,49.89
2018-02-21T22:30:06.487Z,50.02
2018-02-21T22:32:36.083Z,50.03
2018-02-21T22:35:05.402Z,50.17
2018-02-21T22:37:34.781Z,50.39
2018-02-21T22:40:04.693Z,50.37
2018-02-21T22:42:34.009Z,50.70
2018-02-21T22:45:03.781Z,50.88
2018-02-21T22:47:33.385Z,50.84
2018-02-21T22:50:03.499Z,51.12
2018-02-21T22:55:15.905Z,51.01
2018-02-21T22:57:45.228Z,51.12
2018-02-21T23:00:15.685Z,50.99
2018-02-21T23:02:45.025Z,50.99
2018-02-21T23:05:14.320Z,50.87
2018-02-21T23:07:44.237Z,51.22
2018-02-21T23:10:13.515Z,51.20
2018-02-21T23:12:42.993Z,51.14
2018-02-21T23:15:12.536Z,50.87
2018-02-21T23:17:42.016Z,51.05
2018-02-21T23:20:11.244Z,51.08
2018-02-21T23:22:40.859Z,51.37
2018-02-21T23:25:10.075Z,51.44
2018-02-21T23:27:39.423Z,51.59
2018-02-21T23:30:09.075Z,51.93
2018-02-21T23:32:38.505Z,51.95
2018-02-21T23:35:08.046Z,51.88
2018-02-21T23:37:38.667Z,52.30
2018-02-21T23:40:08.338Z,52.32
2018-02-21T23:42:37.620Z,52.15
2018-02-21T23:45:07.287Z,52.46
2018-02-21T23:47:37.514Z,52.20
2018-02-21T23:50:07.465Z,52.31
2018-02-21T23:52:37.171Z,52.48
2018-02-21T23:55:06.511Z,52.75
2018-02-21T23:57:35.806Z,52.82
